Reliance — 2EWE5 — position and weather

sailwx.info

Track history (hours):
 
Tides and Currents Weather Stations Pressure Air Temp Water Temp Dewpoint Dewpoint Depression Visibility Wind Speed Wind Dir Waves Ship Positions

Reliance

Last reported at 2018-Jul-17 01:02 UTC. Time now 2018-Jul-19 15:04 UTC.
Position N 37°30' W 122°29'.

Type: Pleasure craft. MMSI: 235088658.

Date/timePositionNaut miles runAvg speedWind from/ knotsBaromVisibWave heightAir tempDewpointWater temp
2018-Jul-17 01:02N 37°30' W 122°29'0 0.0
2018-Jul-17 00:59N 37°30' W 122°29'0 0.0
2018-Jul-17 00:29N 37°30' W 122°29'1 1.0
2018-Jul-16 23:30N 37°29' W 122°29'2 4.5
2018-Jul-16 23:00N 37°27' W 122°28'2 3.6
2018-Jul-16 22:26N 37°25' W 122°27'3 5.9
2018-Jul-16 21:56N 37°22' W 122°27'1 2.0
2018-Jul-16 21:29N 37°23' W 122°27'611.7
2018-Jul-16 21:00N 37°28' W 122°29'1 2.2
2018-Jul-16 20:30N 37°29' W 122°29'1 1.5
2018-Jul-16 19:58N 37°30' W 122°29'0 0.0
2018-Jul-16 19:28N 37°30' W 122°29'0 0.0
2018-Jul-16 18:58N 37°30' W 122°29'0 0.0
2018-Jul-16 18:28N 37°30' W 122°29'0 0.0
2018-Jul-16 17:58N 37°30' W 122°29'0 0.0
2018-Jul-16 17:28N 37°30' W 122°29'0 0.0
2018-Jul-16 16:58N 37°30' W 122°29'0 0.0
2018-Jul-16 16:28N 37°30' W 122°29'0 0.0
2018-Jul-16 15:58N 37°30' W 122°29'0 0.0
2018-Jul-16 15:28N 37°30' W 122°29'0 0.0
2018-Jul-16 14:58N 37°30' W 122°29'0 0.0
2018-Jul-16 14:28N 37°30' W 122°29'0 0.0
2018-Jul-16 13:58N 37°30' W 122°29'0 0.0
2018-Jul-16 13:28N 37°30' W 122°29'0 0.0
2018-Jul-16 12:58N 37°30' W 122°29'0 0.0
2018-Jul-16 12:28N 37°30' W 122°29'0 0.0
2018-Jul-16 11:58N 37°30' W 122°29'0 0.0
2018-Jul-16 11:28N 37°30' W 122°29'0 0.0
2018-Jul-16 10:58N 37°30' W 122°29'0 0.0
2018-Jul-16 10:31N 37°30' W 122°29'0 0.0
2018-Jul-16 09:58N 37°30' W 122°29'0 0.0
2018-Jul-16 09:28N 37°30' W 122°29'0 0.0
2018-Jul-16 08:58N 37°30' W 122°29'0 0.0
2018-Jul-16 08:28N 37°30' W 122°29'0 0.0
2018-Jul-16 07:58N 37°30' W 122°29'0 0.0
2018-Jul-16 07:28N 37°30' W 122°29'0 0.0
2018-Jul-16 06:58N 37°30' W 122°29'0 0.0
2018-Jul-16 06:28N 37°30' W 122°29'0 0.0
2018-Jul-16 05:58N 37°30' W 122°29'0 0.0
2018-Jul-16 05:28N 37°30' W 122°29'0 0.0
2018-Jul-16 04:58N 37°30' W 122°29'0 0.0
2018-Jul-16 04:28N 37°30' W 122°29'0 0.0
2018-Jul-16 03:58N 37°30' W 122°29'0 0.0
2018-Jul-16 03:28N 37°30' W 122°29'0 0.0
2018-Jul-16 02:58N 37°30' W 122°29'0 0.0
2018-Jul-16 02:28N 37°30' W 122°29'0 0.0
2018-Jul-16 01:58N 37°30' W 122°29'0 0.0
2018-Jul-16 01:28N 37°30' W 122°29'0 0.0
2018-Jul-16 00:58N 37°30' W 122°29'0 0.0
2018-Jul-16 00:28N 37°30' W 122°29'0 0.0
2018-Jul-15 23:58N 37°30' W 122°29'0 0.0
2018-Jul-15 23:28N 37°30' W 122°29'0 0.0
2018-Jul-15 22:58N 37°30' W 122°29'0 0.0
2018-Jul-15 22:25N 37°30' W 122°29'0 0.0
2018-Jul-15 21:58N 37°30' W 122°29'0 0.0
2018-Jul-15 21:28N 37°30' W 122°29'0 0.0
2018-Jul-15 20:58N 37°30' W 122°29'0 0.0
2018-Jul-15 20:28N 37°30' W 122°29'0 0.0
2018-Jul-15 19:58N 37°30' W 122°29'0 0.0
2018-Jul-15 19:28N 37°30' W 122°29'0 0.0
2018-Jul-15 18:58N 37°30' W 122°29'0 0.0
2018-Jul-15 18:28N 37°30' W 122°29'0 0.0
2018-Jul-15 17:58N 37°30' W 122°29'0 0.0
2018-Jul-15 17:28N 37°30' W 122°29'0 0.0
2018-Jul-15 16:58N 37°30' W 122°29'0 0.0
2018-Jul-15 16:28N 37°30' W 122°29'0 0.0
2018-Jul-15 15:58N 37°30' W 122°29'0 0.0
2018-Jul-15 15:28N 37°30' W 122°29'0 0.0
2018-Jul-15 14:58N 37°30' W 122°29'0 0.0
2018-Jul-15 14:25N 37°30' W 122°29'0 0.0
2018-Jul-15 13:58N 37°30' W 122°29'0 0.0
2018-Jul-15 13:28N 37°30' W 122°29'0 0.0
2018-Jul-15 12:58N 37°30' W 122°29'0 0.0
2018-Jul-15 12:28N 37°30' W 122°29'0 0.0
2018-Jul-15 11:58N 37°30' W 122°29'0 0.0
2018-Jul-15 11:28N 37°30' W 122°29'0 0.0
2018-Jul-15 10:58N 37°30' W 122°29'0 0.0
2018-Jul-15 10:28N 37°30' W 122°29'0 0.0
2018-Jul-15 09:58N 37°30' W 122°29'0 0.0
2018-Jul-15 09:28N 37°30' W 122°29'0 0.0
2018-Jul-15 08:58N 37°30' W 122°29'0 0.0
2018-Jul-15 08:28N 37°30' W 122°29'0 0.0
2018-Jul-15 07:58N 37°30' W 122°29'0 0.0
2018-Jul-15 07:28N 37°30' W 122°29'0 0.0
2018-Jul-15 06:58N 37°30' W 122°29'0 0.0
2018-Jul-15 06:28N 37°30' W 122°29'0 0.0
2018-Jul-15 05:58N 37°30' W 122°29'0 0.0
2018-Jul-15 05:28N 37°30' W 122°29'0 0.0
2018-Jul-15 04:58N 37°30' W 122°29'0 0.0
2018-Jul-15 04:28N 37°30' W 122°29'0 0.0
2018-Jul-15 03:58N 37°30' W 122°29'0 0.0
2018-Jul-15 03:28N 37°30' W 122°29'0 0.0
2018-Jul-15 02:58N 37°30' W 122°29'0 0.0
2018-Jul-15 02:28N 37°30' W 122°29'0 0.0
2018-Jul-15 01:58N 37°30' W 122°29'0 0.0
2018-Jul-15 01:28N 37°30' W 122°29'0 0.0
2018-Jul-15 00:58N 37°30' W 122°29'0 0.0
2018-Jul-15 00:28N 37°30' W 122°29'0 0.0
2018-Jul-14 23:58N 37°30' W 122°29'0 0.0
2018-Jul-14 23:28N 37°30' W 122°29'0 0.0
2018-Jul-14 22:58N 37°30' W 122°29'0 0.0
2018-Jul-14 22:28N 37°30' W 122°29'0 0.0
2018-Jul-14 21:58N 37°30' W 122°29'0 0.0
2018-Jul-14 21:28N 37°30' W 122°29'0 0.0
2018-Jul-14 20:58N 37°30' W 122°29'0 0.0
2018-Jul-14 20:28N 37°30' W 122°29'0 0.0
2018-Jul-14 19:58N 37°30' W 122°29'0 0.0
2018-Jul-14 19:28N 37°30' W 122°29'0 0.0
2018-Jul-14 18:58N 37°30' W 122°29'0 0.0
2018-Jul-14 18:28N 37°30' W 122°29'0 0.0
2018-Jul-14 17:58N 37°30' W 122°29'0 0.0
2018-Jul-14 17:28N 37°30' W 122°29'0 0.0
2018-Jul-14 16:58N 37°30' W 122°29'0 0.0
2018-Jul-14 16:28N 37°30' W 122°29'0 0.0
2018-Jul-14 15:58N 37°30' W 122°29'0 0.0
2018-Jul-14 15:28N 37°30' W 122°29'0 0.0
2018-Jul-14 14:58N 37°30' W 122°29'0 0.0
2018-Jul-14 14:28N 37°30' W 122°29'0 0.0
2018-Jul-14 13:28N 37°30' W 122°29'0 0.0
2018-Jul-14 12:58N 37°30' W 122°29'0 0.0
2018-Jul-14 12:28N 37°30' W 122°29'0 0.0
2018-Jul-14 11:58N 37°30' W 122°29'0 0.0
2018-Jul-14 11:28N 37°30' W 122°29'0 0.0
2018-Jul-14 10:58N 37°30' W 122°29'0 0.0
2018-Jul-14 10:28N 37°30' W 122°29'0 0.0
2018-Jul-14 09:58N 37°30' W 122°29'0 0.0
2018-Jul-14 09:28N 37°30' W 122°29'0 0.0
2018-Jul-14 08:58N 37°30' W 122°29'0 0.0
2018-Jul-14 08:28N 37°30' W 122°29'0 0.0
2018-Jul-14 07:58N 37°30' W 122°29'0 0.0
2018-Jul-14 07:28N 37°30' W 122°29'0 0.0
2018-Jul-14 06:58N 37°30' W 122°29'0 0.0
2018-Jul-14 06:28N 37°30' W 122°29'0 0.0
2018-Jul-14 05:58N 37°30' W 122°29'0 0.0
2018-Jul-14 05:28N 37°30' W 122°29'0 0.0
2018-Jul-14 04:58N 37°30' W 122°29'0 0.0
2018-Jul-14 04:28N 37°30' W 122°29'0 0.0
2018-Jul-14 03:58N 37°30' W 122°29'0 0.0
2018-Jul-14 03:28N 37°30' W 122°29'0 0.0
2018-Jul-14 02:58N 37°30' W 122°29'0 0.0
2018-Jul-14 02:28N 37°30' W 122°29'0 0.0
2018-Jul-14 01:58N 37°30' W 122°29'0 0.0
2018-Jul-14 01:28N 37°30' W 122°29'0 0.0
2018-Jul-14 00:58N 37°30' W 122°29'0 0.0
2018-Jul-14 00:28N 37°30' W 122°29'0 0.0
2018-Jul-13 23:58N 37°30' W 122°29'0 0.0
2018-Jul-13 23:28N 37°30' W 122°29'0 0.0
2018-Jul-13 22:58N 37°30' W 122°29'0 0.0
2018-Jul-13 22:28N 37°30' W 122°29'0 0.0
2018-Jul-13 21:58N 37°30' W 122°29'0 0.0
2018-Jul-13 21:28N 37°30' W 122°29'0 0.0
2018-Jul-13 20:58N 37°30' W 122°29'0 0.0
2018-Jul-13 20:28N 37°30' W 122°29'0 0.0
2018-Jul-13 19:58N 37°30' W 122°29'0 0.0
2018-Jul-13 19:28N 37°30' W 122°29'0 0.0
2018-Jul-13 18:58N 37°30' W 122°29'0 0.0
2018-Jul-13 18:28N 37°30' W 122°29'0 0.0
2018-Jul-13 17:58N 37°30' W 122°29'0 0.0
2018-Jul-13 17:28N 37°30' W 122°29'0 0.0
2018-Jul-13 16:58N 37°30' W 122°29'0 0.0
2018-Jul-13 16:28N 37°30' W 122°29'0 0.0
2018-Jul-13 15:58N 37°30' W 122°29'0 0.0
2018-Jul-13 15:28N 37°30' W 122°29'0 0.0
2018-Jul-13 14:58N 37°30' W 122°29'0 0.0
2018-Jul-13 13:58N 37°30' W 122°29'0 0.0
2018-Jul-13 13:28N 37°30' W 122°29'0 0.0
2018-Jul-13 12:58N 37°30' W 122°29'0 0.0
2018-Jul-13 12:28N 37°30' W 122°29'0 0.0
2018-Jul-13 11:58N 37°30' W 122°29'0 0.0
2018-Jul-13 11:28N 37°30' W 122°29'0 0.0
2018-Jul-13 10:55N 37°30' W 122°29'0 0.0
2018-Jul-13 10:28N 37°30' W 122°29'0 0.0
2018-Jul-13 09:58N 37°30' W 122°29'0 0.0
2018-Jul-13 09:28N 37°30' W 122°29'0 0.0
2018-Jul-13 08:58N 37°30' W 122°29'0 0.0
2018-Jul-13 08:28N 37°30' W 122°29'0 0.0
2018-Jul-13 07:58N 37°30' W 122°29'0 0.0
2018-Jul-13 07:28N 37°30' W 122°29'0 0.0
2018-Jul-13 06:58N 37°30' W 122°29'0 0.0
2018-Jul-13 06:28N 37°30' W 122°29'0 0.0
2018-Jul-13 05:58N 37°30' W 122°29'0 0.0
2018-Jul-13 05:28N 37°30' W 122°29'0 0.0
2018-Jul-13 04:58N 37°30' W 122°29'0 0.0
2018-Jul-13 04:28N 37°30' W 122°29'0 0.0
2018-Jul-13 03:58N 37°30' W 122°29'0 0.0
2018-Jul-13 03:28N 37°30' W 122°29'0 0.0
2018-Jul-13 02:58N 37°30' W 122°29'0 0.0
2018-Jul-13 02:28N 37°30' W 122°29'0 0.0
2018-Jul-13 01:58N 37°30' W 122°29'0 0.0
2018-Jul-13 01:28N 37°30' W 122°29'0 0.0
2018-Jul-13 00:58N 37°30' W 122°29'0 0.0
2018-Jul-13 00:28N 37°30' W 122°29'0 0.0
2018-Jul-12 23:58N 37°30' W 122°29'0 0.0
2018-Jul-12 23:28N 37°30' W 122°29'0 0.0
2018-Jul-12 22:58N 37°30' W 122°29'0 0.0
2018-Jul-12 22:28N 37°30' W 122°29'0 0.0
2018-Jul-12 21:58N 37°30' W 122°29'0 0.0
2018-Jul-12 21:28N 37°30' W 122°29'0 0.0
2018-Jul-12 20:58N 37°30' W 122°29'0 0.0
2018-Jul-12 20:28N 37°30' W 122°29'0 0.0
2018-Jul-12 19:58N 37°30' W 122°29'0 0.2
2018-Jul-12 19:28N 37°30' W 122°29'3 6.6
2018-Jul-12 19:00N 37°32' W 122°32'3 0.5
2018-Jul-12 13:25N 37°35' W 122°32'614.4
2018-Jul-12 12:59N 37°29' W 122°30'1 2.7
2018-Jul-12 12:29N 37°30' W 122°29'0 0.0
2018-Jul-12 11:59N 37°30' W 122°29'0 0.0
2018-Jul-12 11:29N 37°30' W 122°29'0 0.0
2018-Jul-12 10:59N 37°30' W 122°29'0 0.0
2018-Jul-12 10:29N 37°30' W 122°29'0 0.0
2018-Jul-12 09:59N 37°30' W 122°29'0 0.0
2018-Jul-12 09:29N 37°30' W 122°29'0 0.0
2018-Jul-12 08:59N 37°30' W 122°29'0 0.0
2018-Jul-12 08:29N 37°30' W 122°29'0 0.0
2018-Jul-12 07:59N 37°30' W 122°29'0 0.0
2018-Jul-12 07:29N 37°30' W 122°29'0 0.0
2018-Jul-12 06:59N 37°30' W 122°29'0 0.0
2018-Jul-12 06:29N 37°30' W 122°29'0 0.0
2018-Jul-12 05:59N 37°30' W 122°29'0 0.0
2018-Jul-12 05:29N 37°30' W 122°29'0 0.0
2018-Jul-12 04:59N 37°30' W 122°29'0 0.0
2018-Jul-12 04:29N 37°30' W 122°29'0 0.0
2018-Jul-12 03:59N 37°30' W 122°29'0 0.0
2018-Jul-12 03:29N 37°30' W 122°29'0 0.0
2018-Jul-12 02:59N 37°30' W 122°29'0 0.0
2018-Jul-12 02:29N 37°30' W 122°29'0 0.0
2018-Jul-12 01:59N 37°30' W 122°29'0 0.0
2018-Jul-12 01:29N 37°30' W 122°29'0 0.0
2018-Jul-12 00:59N 37°30' W 122°29'0 0.0
2018-Jul-12 00:29N 37°30' W 122°29'0 0.0
2018-Jul-11 23:59N 37°30' W 122°29'0 0.0
2018-Jul-11 23:29N 37°30' W 122°29'0 0.0
2018-Jul-11 22:59N 37°30' W 122°29'0 0.0
2018-Jul-11 22:29N 37°30' W 122°29'0 0.0
2018-Jul-11 21:59N 37°30' W 122°29'0 0.0
2018-Jul-11 21:29N 37°30' W 122°29'0 0.0
2018-Jul-11 20:59N 37°30' W 122°29'0 0.0
2018-Jul-11 20:29N 37°30' W 122°29'0 0.0
2018-Jul-11 19:59N 37°30' W 122°29'0 0.0
2018-Jul-11 19:29N 37°30' W 122°29'0 0.0
2018-Jul-11 18:59N 37°30' W 122°29'0 0.0
2018-Jul-11 18:29N 37°30' W 122°29'0 0.0
2018-Jul-11 17:59N 37°30' W 122°29'0 0.0
2018-Jul-11 17:29N 37°30' W 122°29'0 0.0
2018-Jul-11 16:59N 37°30' W 122°29'0 0.0
2018-Jul-11 16:29N 37°30' W 122°29'0 0.0
2018-Jul-11 15:59N 37°30' W 122°29'0 0.0
2018-Jul-11 15:29N 37°30' W 122°29'0 0.0
2018-Jul-11 14:59N 37°30' W 122°29'0 0.0
2018-Jul-11 14:29N 37°30' W 122°29'0 0.0
2018-Jul-11 13:59N 37°30' W 122°29'0 0.0
2018-Jul-11 13:29N 37°30' W 122°29'0 0.0
2018-Jul-11 12:59N 37°30' W 122°29'0 0.0
2018-Jul-11 12:29N 37°30' W 122°29'0 0.0
2018-Jul-11 11:59N 37°30' W 122°29'0 0.0
2018-Jul-11 11:29N 37°30' W 122°29'0 0.0
2018-Jul-11 10:59N 37°30' W 122°29'0 0.0
2018-Jul-11 10:29N 37°30' W 122°29'0 0.0
2018-Jul-11 09:59N 37°30' W 122°29'0 0.0
2018-Jul-11 09:29N 37°30' W 122°29'0 0.0
2018-Jul-11 08:59N 37°30' W 122°29'0 0.0
2018-Jul-11 08:29N 37°30' W 122°29'0 0.0
2018-Jul-11 07:59N 37°30' W 122°29'0 0.0
2018-Jul-11 07:29N 37°30' W 122°29'0 0.0
2018-Jul-11 06:59N 37°30' W 122°29'0 0.0
2018-Jul-11 06:29N 37°30' W 122°29'0 0.0
2018-Jul-11 05:59N 37°30' W 122°29'0 0.0
2018-Jul-11 05:29N 37°30' W 122°29'0 0.0
2018-Jul-11 04:59N 37°30' W 122°29'0 0.0
2018-Jul-11 04:29N 37°30' W 122°29'0 0.0
2018-Jul-11 03:59N 37°30' W 122°29'0 0.0
2018-Jul-11 03:29N 37°30' W 122°29'0 0.0
2018-Jul-11 02:59N 37°30' W 122°29'0 0.0
2018-Jul-11 02:29N 37°30' W 122°29'0 0.0
2018-Jul-11 01:59N 37°30' W 122°29'0 0.0
2018-Jul-11 01:29N 37°30' W 122°29'0 0.0
2018-Jul-11 00:59N 37°30' W 122°29'0 0.0
2018-Jul-11 00:29N 37°30' W 122°29'0 0.0
2018-Jul-10 23:59N 37°30' W 122°29'0 0.0
2018-Jul-10 23:29N 37°30' W 122°29'0 0.0
2018-Jul-10 22:59N 37°30' W 122°29'0 0.0
2018-Jul-10 22:29N 37°30' W 122°29'0 0.0
2018-Jul-10 21:59N 37°30' W 122°29'0 0.0
2018-Jul-10 21:29N 37°30' W 122°29'0 0.0
2018-Jul-10 20:59N 37°30' W 122°29'0 0.0
2018-Jul-10 20:29N 37°30' W 122°29'0 0.0
2018-Jul-10 19:59N 37°30' W 122°29'0 0.0
2018-Jul-10 19:29N 37°30' W 122°29'0 0.0
2018-Jul-10 18:59N 37°30' W 122°29'0 0.0
2018-Jul-10 18:29N 37°30' W 122°29'0 0.0
2018-Jul-10 17:59N 37°30' W 122°29'0 0.0
2018-Jul-10 17:29N 37°30' W 122°29'0 0.0
2018-Jul-10 16:59N 37°30' W 122°29'0 0.0
2018-Jul-10 16:29N 37°30' W 122°29'0 0.0
2018-Jul-10 15:59N 37°30' W 122°29'0 0.0
2018-Jul-10 15:29N 37°30' W 122°29'0 0.0
2018-Jul-10 14:59N 37°30' W 122°29'0 0.0
2018-Jul-10 14:29N 37°30' W 122°29'0 0.0
2018-Jul-10 13:59N 37°30' W 122°29'0 0.0
2018-Jul-10 13:29N 37°30' W 122°29'0 0.0
2018-Jul-10 12:59N 37°30' W 122°29'0 0.0
2018-Jul-10 12:29N 37°30' W 122°29'0 0.0
2018-Jul-10 11:59N 37°30' W 122°29'0 0.0
2018-Jul-10 11:29N 37°30' W 122°29'0 0.0
2018-Jul-10 10:59N 37°30' W 122°29'0 0.0
2018-Jul-10 10:29N 37°30' W 122°29'0 0.0
2018-Jul-10 09:59N 37°30' W 122°29'0 0.0
2018-Jul-10 09:29N 37°30' W 122°29'0 0.0
2018-Jul-10 08:59N 37°30' W 122°29'0 0.0
2018-Jul-10 08:29N 37°30' W 122°29'0 0.0
2018-Jul-10 07:59N 37°30' W 122°29'0 0.0
2018-Jul-10 07:29N 37°30' W 122°29'0 0.0
2018-Jul-10 06:59N 37°30' W 122°29'0 0.0
2018-Jul-10 06:29N 37°30' W 122°29'0 0.0
2018-Jul-10 05:59N 37°30' W 122°29'0 0.0
2018-Jul-10 05:29N 37°30' W 122°29'0 0.0
2018-Jul-10 04:59N 37°30' W 122°29'0 0.0
2018-Jul-10 04:29N 37°30' W 122°29'0 0.0
2018-Jul-10 03:59N 37°30' W 122°29'0 0.0
2018-Jul-10 03:29N 37°30' W 122°29'0 0.0
2018-Jul-10 02:59N 37°30' W 122°29'0 0.0
2018-Jul-10 02:29N 37°30' W 122°29'0 0.0
2018-Jul-10 01:59N 37°30' W 122°29'0 0.0
2018-Jul-10 01:29N 37°30' W 122°29'0 0.0
2018-Jul-10 00:59N 37°30' W 122°29'0 0.0
2018-Jul-10 00:29N 37°30' W 122°29'0 0.0
2018-Jul-09 23:59N 37°30' W 122°29'0 0.0
2018-Jul-09 23:29N 37°30' W 122°29'0 0.0
2018-Jul-09 22:59N 37°30' W 122°29'0 0.0
2018-Jul-09 22:29N 37°30' W 122°29'0 0.0
2018-Jul-09 21:59N 37°30' W 122°29'0 0.0
2018-Jul-09 21:29N 37°30' W 122°29'0 0.0
2018-Jul-09 20:59N 37°30' W 122°29'0 0.0
2018-Jul-09 20:29N 37°30' W 122°29'0 0.0
2018-Jul-09 19:59N 37°30' W 122°29'0 0.0
2018-Jul-09 19:29N 37°30' W 122°29'0 0.0
2018-Jul-09 18:59N 37°30' W 122°29'0 0.0
2018-Jul-09 18:29N 37°30' W 122°29'0 0.0
2018-Jul-09 17:59N 37°30' W 122°29'0 0.0
2018-Jul-09 17:29N 37°30' W 122°29'0 0.0
2018-Jul-09 16:59N 37°30' W 122°29'0 0.0
2018-Jul-09 16:29N 37°30' W 122°29'0 0.0
2018-Jul-09 15:59N 37°30' W 122°29'0 0.0
2018-Jul-09 15:29N 37°30' W 122°29'0 0.0
2018-Jul-09 14:59N 37°30' W 122°29'0 0.0
2018-Jul-09 14:29N 37°30' W 122°29'0 0.0
2018-Jul-09 13:59N 37°30' W 122°29'0 0.0
2018-Jul-09 13:29N 37°30' W 122°29'0 0.0
2018-Jul-09 12:59N 37°30' W 122°29'0 0.0
2018-Jul-09 12:29N 37°30' W 122°29'0 0.0
2018-Jul-09 11:59N 37°30' W 122°29'0 0.0
2018-Jul-09 11:29N 37°30' W 122°29'0 0.0
2018-Jul-09 10:59N 37°30' W 122°29'0 0.0
2018-Jul-09 10:29N 37°30' W 122°29'0 0.0
2018-Jul-09 09:59N 37°30' W 122°29'0 0.0
2018-Jul-09 09:29N 37°30' W 122°29'0 0.0
2018-Jul-09 08:59N 37°30' W 122°29'0 0.0
2018-Jul-09 08:29N 37°30' W 122°29'0 0.0
2018-Jul-09 07:59N 37°30' W 122°29'0 0.0
2018-Jul-09 07:29N 37°30' W 122°29'0 0.0
2018-Jul-09 06:59N 37°30' W 122°29'0 0.0
2018-Jul-09 06:29N 37°30' W 122°29'0 0.0
2018-Jul-09 05:59N 37°30' W 122°29'0 0.0
2018-Jul-09 05:29N 37°30' W 122°29'0 0.0
2018-Jul-09 04:59N 37°30' W 122°29'0 0.0
2018-Jul-09 04:29N 37°30' W 122°29'0 0.0
2018-Jul-09 03:59N 37°30' W 122°29'0 0.0
2018-Jul-09 03:29N 37°30' W 122°29'0 0.0
2018-Jul-09 02:59N 37°30' W 122°29'0 0.0
2018-Jul-09 02:29N 37°30' W 122°29'0 0.0
2018-Jul-09 01:59N 37°30' W 122°29'0 0.0
2018-Jul-09 01:29N 37°30' W 122°29'0 0.0
2018-Jul-09 00:59N 37°30' W 122°29'0 0.0
2018-Jul-09 00:29N 37°30' W 122°29'0 0.0
2018-Jul-08 23:59N 37°30' W 122°29'0 0.0
2018-Jul-08 23:29N 37°30' W 122°29'0 0.0
2018-Jul-08 22:59N 37°30' W 122°29'0 0.0
2018-Jul-08 22:29N 37°30' W 122°29'0 0.0
2018-Jul-08 21:59N 37°30' W 122°29'0 0.0
2018-Jul-08 21:29N 37°30' W 122°29'0 0.0
2018-Jul-08 20:59N 37°30' W 122°29'0 0.0
2018-Jul-08 20:29N 37°30' W 122°29'0 0.0
2018-Jul-08 19:59N 37°30' W 122°29'0 0.0
2018-Jul-08 19:29N 37°30' W 122°29'0 0.0
2018-Jul-08 18:59N 37°30' W 122°29'0 0.0
2018-Jul-08 18:29N 37°30' W 122°29'0 0.0
2018-Jul-08 17:59N 37°30' W 122°29'0 0.0
2018-Jul-08 17:26N 37°30' W 122°29'0 0.0
2018-Jul-08 16:59N 37°30' W 122°29'0 0.0
2018-Jul-08 16:29N 37°30' W 122°29'0 0.0
2018-Jul-08 15:59N 37°30' W 122°29'0 0.0
2018-Jul-08 15:29N 37°30' W 122°29'0 0.0
2018-Jul-08 14:59N 37°30' W 122°29'0 0.0
2018-Jul-08 14:29N 37°30' W 122°29'0 0.0
2018-Jul-08 13:59N 37°30' W 122°29'0 0.0
2018-Jul-08 13:29N 37°30' W 122°29'0 0.0
2018-Jul-08 12:59N 37°30' W 122°29'0 0.0
2018-Jul-08 12:29N 37°30' W 122°29'0 0.0
2018-Jul-08 11:59N 37°30' W 122°29'0 0.0
2018-Jul-08 11:29N 37°30' W 122°29'0 0.0
2018-Jul-08 10:59N 37°30' W 122°29'0 0.0
2018-Jul-08 10:29N 37°30' W 122°29'0 0.0
2018-Jul-08 09:59N 37°30' W 122°29'0 0.0
2018-Jul-08 09:29N 37°30' W 122°29'0 0.0
2018-Jul-08 08:59N 37°30' W 122°29'0 0.0
2018-Jul-08 08:29N 37°30' W 122°29'0 0.0
2018-Jul-08 07:59N 37°30' W 122°29'0 0.0
2018-Jul-08 07:29N 37°30' W 122°29'0 0.0
2018-Jul-08 06:59N 37°30' W 122°29'0 0.0
2018-Jul-08 06:28N 37°30' W 122°29'0 0.0
2018-Jul-08 05:59N 37°30' W 122°29'0 0.0
2018-Jul-08 05:29N 37°30' W 122°29'0 0.0
2018-Jul-08 04:59N 37°30' W 122°29'0 0.0
2018-Jul-08 04:28N 37°30' W 122°29'0 0.0
2018-Jul-08 03:59N 37°30' W 122°29'0 0.0
2018-Jul-08 03:29N 37°30' W 122°29'0 0.0
2018-Jul-08 02:59N 37°30' W 122°29'0 0.0
2018-Jul-08 02:28N 37°30' W 122°29'0 0.0
2018-Jul-08 01:59N 37°30' W 122°29'0 0.0
2018-Jul-08 01:29N 37°30' W 122°29'0 0.0
2018-Jul-08 00:59N 37°30' W 122°29'0 0.0
2018-Jul-08 00:29N 37°30' W 122°29'0 0.0
2018-Jul-07 23:58N 37°30' W 122°29'0 0.0
2018-Jul-07 23:29N 37°30' W 122°29'0 0.0
2018-Jul-07 22:58N 37°30' W 122°29'0 0.0
2018-Jul-07 22:29N 37°30' W 122°29'0 0.0
2018-Jul-07 21:59N 37°30' W 122°29'0 0.0
2018-Jul-07 21:29N 37°30' W 122°29'0 0.0
2018-Jul-07 20:59N 37°30' W 122°29'0 0.0
2018-Jul-07 20:29N 37°30' W 122°29'0 0.0
2018-Jul-07 19:59N 37°30' W 122°29'0 0.0
2018-Jul-07 19:29N 37°30' W 122°29'0 0.0
2018-Jul-07 18:59N 37°30' W 122°29'0 0.0
2018-Jul-07 18:28N 37°30' W 122°29'0 0.0
2018-Jul-07 17:59N 37°30' W 122°29'0 0.0
2018-Jul-07 17:29N 37°30' W 122°29'0 0.0
2018-Jul-07 16:59N 37°30' W 122°29'0 0.0
2018-Jul-07 16:28N 37°30' W 122°29'0 0.0
2018-Jul-07 15:59N 37°30' W 122°29'0 0.0
2018-Jul-07 15:29N 37°30' W 122°29'0 0.0
2018-Jul-07 14:59N 37°30' W 122°29'0 0.0
2018-Jul-07 14:29N 37°30' W 122°29'0 0.0
2018-Jul-07 13:59N 37°30' W 122°29'0 0.0
2018-Jul-07 13:28N 37°30' W 122°29'0 0.0
2018-Jul-07 12:59N 37°30' W 122°29'0 0.0
2018-Jul-07 12:28N 37°30' W 122°29'0 0.0
2018-Jul-07 11:59N 37°30' W 122°29'0 0.0
2018-Jul-07 11:28N 37°30' W 122°29'0 0.0
2018-Jul-07 10:59N 37°30' W 122°29'0 0.0
2018-Jul-07 10:28N 37°30' W 122°29'0 0.0
2018-Jul-07 09:58N 37°30' W 122°29'0 0.0
2018-Jul-07 09:28N 37°30' W 122°29'0 0.0
2018-Jul-07 08:58N 37°30' W 122°29'0 0.0
2018-Jul-07 08:28N 37°30' W 122°29'0 0.0
2018-Jul-07 07:58N 37°30' W 122°29'0 0.0
2018-Jul-07 07:28N 37°30' W 122°29'0 0.0
2018-Jul-07 06:59N 37°30' W 122°29'0 0.0
2018-Jul-07 06:29N 37°30' W 122°29'0 0.0
2018-Jul-07 05:58N 37°30' W 122°29'0 0.0
2018-Jul-07 05:28N 37°30' W 122°29'0 0.0
2018-Jul-07 04:58N 37°30' W 122°29'0 0.0
2018-Jul-07 04:28N 37°30' W 122°29'0 0.0
2018-Jul-07 03:58N 37°30' W 122°29'0 0.0
2018-Jul-07 03:28N 37°30' W 122°29'0 0.0
2018-Jul-07 02:58N 37°30' W 122°29'0 0.0
2018-Jul-07 02:28N 37°30' W 122°29'0 0.0
2018-Jul-07 01:58N 37°30' W 122°29'0 0.0
2018-Jul-07 01:28N 37°30' W 122°29'  
Track history (hours):
 
Tides and Currents Weather Stations Pressure Air Temp Water Temp Dewpoint Dewpoint Depression Visibility Wind Speed Wind Dir Waves Ship Positions

Reliance

Last reported at 2018-Jul-17 01:02 UTC. Time now 2018-Jul-19 15:04 UTC.
Position N 37°30' W 122°29'.

Type: Pleasure craft. MMSI: 235088658.

Date/timePositionNaut miles runAvg speedWind from/ knotsBaromVisibWave heightAir tempDewpointWater temp
2018-Jul-17 01:02N 37°30' W 122°29'0 0.0
2018-Jul-17 00:59N 37°30' W 122°29'0 0.0
2018-Jul-17 00:29N 37°30' W 122°29'1 1.0
2018-Jul-16 23:30N 37°29' W 122°29'2 4.5
2018-Jul-16 23:00N 37°27' W 122°28'2 3.6
2018-Jul-16 22:26N 37°25' W 122°27'3 5.9
2018-Jul-16 21:56N 37°22' W 122°27'1 2.0
2018-Jul-16 21:29N 37°23' W 122°27'611.7
2018-Jul-16 21:00N 37°28' W 122°29'1 2.2
2018-Jul-16 20:30N 37°29' W 122°29'1 1.5
2018-Jul-16 19:58N 37°30' W 122°29'0 0.0
2018-Jul-16 19:28N 37°30' W 122°29'0 0.0
2018-Jul-16 18:58N 37°30' W 122°29'0 0.0
2018-Jul-16 18:28N 37°30' W 122°29'0 0.0
2018-Jul-16 17:58N 37°30' W 122°29'0 0.0
2018-Jul-16 17:28N 37°30' W 122°29'0 0.0
2018-Jul-16 16:58N 37°30' W 122°29'0 0.0
2018-Jul-16 16:28N 37°30' W 122°29'0 0.0
2018-Jul-16 15:58N 37°30' W 122°29'0 0.0
2018-Jul-16 15:28N 37°30' W 122°29'0 0.0
2018-Jul-16 14:58N 37°30' W 122°29'0 0.0
2018-Jul-16 14:28N 37°30' W 122°29'0 0.0
2018-Jul-16 13:58N 37°30' W 122°29'0 0.0
2018-Jul-16 13:28N 37°30' W 122°29'0 0.0
2018-Jul-16 12:58N 37°30' W 122°29'0 0.0
2018-Jul-16 12:28N 37°30' W 122°29'0 0.0
2018-Jul-16 11:58N 37°30' W 122°29'0 0.0
2018-Jul-16 11:28N 37°30' W 122°29'0 0.0
2018-Jul-16 10:58N 37°30' W 122°29'0 0.0
2018-Jul-16 10:31N 37°30' W 122°29'0 0.0
2018-Jul-16 09:58N 37°30' W 122°29'0 0.0
2018-Jul-16 09:28N 37°30' W 122°29'0 0.0
2018-Jul-16 08:58N 37°30' W 122°29'0 0.0
2018-Jul-16 08:28N 37°30' W 122°29'0 0.0
2018-Jul-16 07:58N 37°30' W 122°29'0 0.0
2018-Jul-16 07:28N 37°30' W 122°29'0 0.0
2018-Jul-16 06:58N 37°30' W 122°29'0 0.0
2018-Jul-16 06:28N 37°30' W 122°29'0 0.0
2018-Jul-16 05:58N 37°30' W 122°29'0 0.0
2018-Jul-16 05:28N 37°30' W 122°29'0 0.0
2018-Jul-16 04:58N 37°30' W 122°29'0 0.0
2018-Jul-16 04:28N 37°30' W 122°29'0 0.0
2018-Jul-16 03:58N 37°30' W 122°29'0 0.0
2018-Jul-16 03:28N 37°30' W 122°29'0 0.0
2018-Jul-16 02:58N 37°30' W 122°29'0 0.0
2018-Jul-16 02:28N 37°30' W 122°29'0 0.0
2018-Jul-16 01:58N 37°30' W 122°29'0 0.0
2018-Jul-16 01:28N 37°30' W 122°29'0 0.0
2018-Jul-16 00:58N 37°30' W 122°29'0 0.0
2018-Jul-16 00:28N 37°30' W 122°29'0 0.0
2018-Jul-15 23:58N 37°30' W 122°29'0 0.0
2018-Jul-15 23:28N 37°30' W 122°29'0 0.0
2018-Jul-15 22:58N 37°30' W 122°29'0 0.0
2018-Jul-15 22:25N 37°30' W 122°29'0 0.0
2018-Jul-15 21:58N 37°30' W 122°29'0 0.0
2018-Jul-15 21:28N 37°30' W 122°29'0 0.0
2018-Jul-15 20:58N 37°30' W 122°29'0 0.0
2018-Jul-15 20:28N 37°30' W 122°29'0 0.0
2018-Jul-15 19:58N 37°30' W 122°29'0 0.0
2018-Jul-15 19:28N 37°30' W 122°29'0 0.0
2018-Jul-15 18:58N 37°30' W 122°29'0 0.0
2018-Jul-15 18:28N 37°30' W 122°29'0 0.0
2018-Jul-15 17:58N 37°30' W 122°29'0 0.0
2018-Jul-15 17:28N 37°30' W 122°29'0 0.0
2018-Jul-15 16:58N 37°30' W 122°29'0 0.0
2018-Jul-15 16:28N 37°30' W 122°29'0 0.0
2018-Jul-15 15:58N 37°30' W 122°29'0 0.0
2018-Jul-15 15:28N 37°30' W 122°29'0 0.0
2018-Jul-15 14:58N 37°30' W 122°29'0 0.0
2018-Jul-15 14:25N 37°30' W 122°29'0 0.0
2018-Jul-15 13:58N 37°30' W 122°29'0 0.0
2018-Jul-15 13:28N 37°30' W 122°29'0 0.0
2018-Jul-15 12:58N 37°30' W 122°29'0 0.0
2018-Jul-15 12:28N 37°30' W 122°29'0 0.0
2018-Jul-15 11:58N 37°30' W 122°29'0 0.0
2018-Jul-15 11:28N 37°30' W 122°29'0 0.0
2018-Jul-15 10:58N 37°30' W 122°29'0 0.0
2018-Jul-15 10:28N 37°30' W 122°29'0 0.0
2018-Jul-15 09:58N 37°30' W 122°29'0 0.0
2018-Jul-15 09:28N 37°30' W 122°29'0 0.0
2018-Jul-15 08:58N 37°30' W 122°29'0 0.0
2018-Jul-15 08:28N 37°30' W 122°29'0 0.0
2018-Jul-15 07:58N 37°30' W 122°29'0 0.0
2018-Jul-15 07:28N 37°30' W 122°29'0 0.0
2018-Jul-15 06:58N 37°30' W 122°29'0 0.0
2018-Jul-15 06:28N 37°30' W 122°29'0 0.0
2018-Jul-15 05:58N 37°30' W 122°29'0 0.0
2018-Jul-15 05:28N 37°30' W 122°29'0 0.0
2018-Jul-15 04:58N 37°30' W 122°29'0 0.0
2018-Jul-15 04:28N 37°30' W 122°29'0 0.0
2018-Jul-15 03:58N 37°30' W 122°29'0 0.0
2018-Jul-15 03:28N 37°30' W 122°29'0 0.0
2018-Jul-15 02:58N 37°30' W 122°29'0 0.0
2018-Jul-15 02:28N 37°30' W 122°29'0 0.0
2018-Jul-15 01:58N 37°30' W 122°29'0 0.0
2018-Jul-15 01:28N 37°30' W 122°29'0 0.0
2018-Jul-15 00:58N 37°30' W 122°29'0 0.0
2018-Jul-15 00:28N 37°30' W 122°29'0 0.0
2018-Jul-14 23:58N 37°30' W 122°29'0 0.0
2018-Jul-14 23:28N 37°30' W 122°29'0 0.0
2018-Jul-14 22:58N 37°30' W 122°29'0 0.0
2018-Jul-14 22:28N 37°30' W 122°29'0 0.0
2018-Jul-14 21:58N 37°30' W 122°29'0 0.0
2018-Jul-14 21:28N 37°30' W 122°29'0 0.0
2018-Jul-14 20:58N 37°30' W 122°29'0 0.0
2018-Jul-14 20:28N 37°30' W 122°29'0 0.0
2018-Jul-14 19:58N 37°30' W 122°29'0 0.0
2018-Jul-14 19:28N 37°30' W 122°29'0 0.0
2018-Jul-14 18:58N 37°30' W 122°29'0 0.0
2018-Jul-14 18:28N 37°30' W 122°29'0 0.0
2018-Jul-14 17:58N 37°30' W 122°29'0 0.0
2018-Jul-14 17:28N 37°30' W 122°29'0 0.0
2018-Jul-14 16:58N 37°30' W 122°29'0 0.0
2018-Jul-14 16:28N 37°30' W 122°29'0 0.0
2018-Jul-14 15:58N 37°30' W 122°29'0 0.0
2018-Jul-14 15:28N 37°30' W 122°29'0 0.0
2018-Jul-14 14:58N 37°30' W 122°29'0 0.0
2018-Jul-14 14:28N 37°30' W 122°29'0 0.0
2018-Jul-14 13:28N 37°30' W 122°29'0 0.0
2018-Jul-14 12:58N 37°30' W 122°29'0 0.0
2018-Jul-14 12:28N 37°30' W 122°29'0 0.0
2018-Jul-14 11:58N 37°30' W 122°29'0 0.0
2018-Jul-14 11:28N 37°30' W 122°29'0 0.0
2018-Jul-14 10:58N 37°30' W 122°29'0 0.0
2018-Jul-14 10:28N 37°30' W 122°29'0 0.0
2018-Jul-14 09:58N 37°30' W 122°29'0 0.0
2018-Jul-14 09:28N 37°30' W 122°29'0 0.0
2018-Jul-14 08:58N 37°30' W 122°29'0 0.0
2018-Jul-14 08:28N 37°30' W 122°29'0 0.0
2018-Jul-14 07:58N 37°30' W 122°29'0 0.0
2018-Jul-14 07:28N 37°30' W 122°29'0 0.0
2018-Jul-14 06:58N 37°30' W 122°29'0 0.0
2018-Jul-14 06:28N 37°30' W 122°29'0 0.0
2018-Jul-14 05:58N 37°30' W 122°29'0 0.0
2018-Jul-14 05:28N 37°30' W 122°29'0 0.0
2018-Jul-14 04:58N 37°30' W 122°29'0 0.0
2018-Jul-14 04:28N 37°30' W 122°29'0 0.0
2018-Jul-14 03:58N 37°30' W 122°29'0 0.0
2018-Jul-14 03:28N 37°30' W 122°29'0 0.0
2018-Jul-14 02:58N 37°30' W 122°29'0 0.0
2018-Jul-14 02:28N 37°30' W 122°29'0 0.0
2018-Jul-14 01:58N 37°30' W 122°29'0 0.0
2018-Jul-14 01:28N 37°30' W 122°29'0 0.0
2018-Jul-14 00:58N 37°30' W 122°29'0 0.0
2018-Jul-14 00:28N 37°30' W 122°29'0 0.0
2018-Jul-13 23:58N 37°30' W 122°29'0 0.0
2018-Jul-13 23:28N 37°30' W 122°29'0 0.0
2018-Jul-13 22:58N 37°30' W 122°29'0 0.0
2018-Jul-13 22:28N 37°30' W 122°29'0 0.0
2018-Jul-13 21:58N 37°30' W 122°29'0 0.0
2018-Jul-13 21:28N 37°30' W 122°29'0 0.0
2018-Jul-13 20:58N 37°30' W 122°29'0 0.0
2018-Jul-13 20:28N 37°30' W 122°29'0 0.0
2018-Jul-13 19:58N 37°30' W 122°29'0 0.0
2018-Jul-13 19:28N 37°30' W 122°29'0 0.0
2018-Jul-13 18:58N 37°30' W 122°29'0 0.0
2018-Jul-13 18:28N 37°30' W 122°29'0 0.0
2018-Jul-13 17:58N 37°30' W 122°29'0 0.0
2018-Jul-13 17:28N 37°30' W 122°29'0 0.0
2018-Jul-13 16:58N 37°30' W 122°29'0 0.0
2018-Jul-13 16:28N 37°30' W 122°29'0 0.0
2018-Jul-13 15:58N 37°30' W 122°29'0 0.0
2018-Jul-13 15:28N 37°30' W 122°29'0 0.0
2018-Jul-13 14:58N 37°30' W 122°29'0 0.0
2018-Jul-13 13:58N 37°30' W 122°29'0 0.0
2018-Jul-13 13:28N 37°30' W 122°29'0 0.0
2018-Jul-13 12:58N 37°30' W 122°29'0 0.0
2018-Jul-13 12:28N 37°30' W 122°29'0 0.0
2018-Jul-13 11:58N 37°30' W 122°29'0 0.0
2018-Jul-13 11:28N 37°30' W 122°29'0 0.0
2018-Jul-13 10:55N 37°30' W 122°29'0 0.0
2018-Jul-13 10:28N 37°30' W 122°29'0 0.0
2018-Jul-13 09:58N 37°30' W 122°29'0 0.0
2018-Jul-13 09:28N 37°30' W 122°29'0 0.0
2018-Jul-13 08:58N 37°30' W 122°29'0 0.0
2018-Jul-13 08:28N 37°30' W 122°29'0 0.0
2018-Jul-13 07:58N 37°30' W 122°29'0 0.0
2018-Jul-13 07:28N 37°30' W 122°29'0 0.0
2018-Jul-13 06:58N 37°30' W 122°29'0 0.0
2018-Jul-13 06:28N 37°30' W 122°29'0 0.0
2018-Jul-13 05:58N 37°30' W 122°29'0 0.0
2018-Jul-13 05:28N 37°30' W 122°29'0 0.0
2018-Jul-13 04:58N 37°30' W 122°29'0 0.0
2018-Jul-13 04:28N 37°30' W 122°29'0 0.0
2018-Jul-13 03:58N 37°30' W 122°29'0 0.0
2018-Jul-13 03:28N 37°30' W 122°29'0 0.0
2018-Jul-13 02:58N 37°30' W 122°29'0 0.0
2018-Jul-13 02:28N 37°30' W 122°29'0 0.0
2018-Jul-13 01:58N 37°30' W 122°29'0 0.0
2018-Jul-13 01:28N 37°30' W 122°29'0 0.0
2018-Jul-13 00:58N 37°30' W 122°29'0 0.0
2018-Jul-13 00:28N 37°30' W 122°29'0 0.0
2018-Jul-12 23:58N 37°30' W 122°29'0 0.0
2018-Jul-12 23:28N 37°30' W 122°29'0 0.0
2018-Jul-12 22:58N 37°30' W 122°29'0 0.0
2018-Jul-12 22:28N 37°30' W 122°29'0 0.0
2018-Jul-12 21:58N 37°30' W 122°29'0 0.0
2018-Jul-12 21:28N 37°30' W 122°29'0 0.0
2018-Jul-12 20:58N 37°30' W 122°29'0 0.0
2018-Jul-12 20:28N 37°30' W 122°29'0 0.0
2018-Jul-12 19:58N 37°30' W 122°29'0 0.2
2018-Jul-12 19:28N 37°30' W 122°29'3 6.6
2018-Jul-12 19:00N 37°32' W 122°32'3 0.5
2018-Jul-12 13:25N 37°35' W 122°32'614.4
2018-Jul-12 12:59N 37°29' W 122°30'1 2.7
2018-Jul-12 12:29N 37°30' W 122°29'0 0.0
2018-Jul-12 11:59N 37°30' W 122°29'0 0.0
2018-Jul-12 11:29N 37°30' W 122°29'0 0.0
2018-Jul-12 10:59N 37°30' W 122°29'0 0.0
2018-Jul-12 10:29N 37°30' W 122°29'0 0.0
2018-Jul-12 09:59N 37°30' W 122°29'0 0.0
2018-Jul-12 09:29N 37°30' W 122°29'0 0.0
2018-Jul-12 08:59N 37°30' W 122°29'0 0.0
2018-Jul-12 08:29N 37°30' W 122°29'0 0.0
2018-Jul-12 07:59N 37°30' W 122°29'0 0.0
2018-Jul-12 07:29N 37°30' W 122°29'0 0.0
2018-Jul-12 06:59N 37°30' W 122°29'0 0.0
2018-Jul-12 06:29N 37°30' W 122°29'0 0.0
2018-Jul-12 05:59N 37°30' W 122°29'0 0.0
2018-Jul-12 05:29N 37°30' W 122°29'0 0.0
2018-Jul-12 04:59N 37°30' W 122°29'0 0.0
2018-Jul-12 04:29N 37°30' W 122°29'0 0.0
2018-Jul-12 03:59N 37°30' W 122°29'0 0.0
2018-Jul-12 03:29N 37°30' W 122°29'0 0.0
2018-Jul-12 02:59N 37°30' W 122°29'0 0.0
2018-Jul-12 02:29N 37°30' W 122°29'0 0.0
2018-Jul-12 01:59N 37°30' W 122°29'0 0.0
2018-Jul-12 01:29N 37°30' W 122°29'0 0.0
2018-Jul-12 00:59N 37°30' W 122°29'0 0.0
2018-Jul-12 00:29N 37°30' W 122°29'0 0.0
2018-Jul-11 23:59N 37°30' W 122°29'0 0.0
2018-Jul-11 23:29N 37°30' W 122°29'0 0.0
2018-Jul-11 22:59N 37°30' W 122°29'0 0.0
2018-Jul-11 22:29N 37°30' W 122°29'0 0.0
2018-Jul-11 21:59N 37°30' W 122°29'0 0.0
2018-Jul-11 21:29N 37°30' W 122°29'0 0.0
2018-Jul-11 20:59N 37°30' W 122°29'0 0.0
2018-Jul-11 20:29N 37°30' W 122°29'0 0.0
2018-Jul-11 19:59N 37°30' W 122°29'0 0.0
2018-Jul-11 19:29N 37°30' W 122°29'0 0.0
2018-Jul-11 18:59N 37°30' W 122°29'0 0.0
2018-Jul-11 18:29N 37°30' W 122°29'0 0.0
2018-Jul-11 17:59N 37°30' W 122°29'0 0.0
2018-Jul-11 17:29N 37°30' W 122°29'0 0.0
2018-Jul-11 16:59N 37°30' W 122°29'0 0.0
2018-Jul-11 16:29N 37°30' W 122°29'0 0.0
2018-Jul-11 15:59N 37°30' W 122°29'0 0.0
2018-Jul-11 15:29N 37°30' W 122°29'0 0.0
2018-Jul-11 14:59N 37°30' W 122°29'0 0.0
2018-Jul-11 14:29N 37°30' W 122°29'0 0.0
2018-Jul-11 13:59N 37°30' W 122°29'0 0.0
2018-Jul-11 13:29N 37°30' W 122°29'0 0.0
2018-Jul-11 12:59N 37°30' W 122°29'0 0.0
2018-Jul-11 12:29N 37°30' W 122°29'0 0.0
2018-Jul-11 11:59N 37°30' W 122°29'0 0.0
2018-Jul-11 11:29N 37°30' W 122°29'0 0.0
2018-Jul-11 10:59N 37°30' W 122°29'0 0.0
2018-Jul-11 10:29N 37°30' W 122°29'0 0.0
2018-Jul-11 09:59N 37°30' W 122°29'0 0.0
2018-Jul-11 09:29N 37°30' W 122°29'0 0.0
2018-Jul-11 08:59N 37°30' W 122°29'0 0.0
2018-Jul-11 08:29N 37°30' W 122°29'0 0.0
2018-Jul-11 07:59N 37°30' W 122°29'0 0.0
2018-Jul-11 07:29N 37°30' W 122°29'0 0.0
2018-Jul-11 06:59N 37°30' W 122°29'0 0.0
2018-Jul-11 06:29N 37°30' W 122°29'0 0.0
2018-Jul-11 05:59N 37°30' W 122°29'0 0.0
2018-Jul-11 05:29N 37°30' W 122°29'0 0.0
2018-Jul-11 04:59N 37°30' W 122°29'0 0.0
2018-Jul-11 04:29N 37°30' W 122°29'0 0.0
2018-Jul-11 03:59N 37°30' W 122°29'0 0.0
2018-Jul-11 03:29N 37°30' W 122°29'0 0.0
2018-Jul-11 02:59N 37°30' W 122°29'0 0.0
2018-Jul-11 02:29N 37°30' W 122°29'0 0.0
2018-Jul-11 01:59N 37°30' W 122°29'0 0.0
2018-Jul-11 01:29N 37°30' W 122°29'0 0.0
2018-Jul-11 00:59N 37°30' W 122°29'0 0.0
2018-Jul-11 00:29N 37°30' W 122°29'0 0.0
2018-Jul-10 23:59N 37°30' W 122°29'0 0.0
2018-Jul-10 23:29N 37°30' W 122°29'0 0.0
2018-Jul-10 22:59N 37°30' W 122°29'0 0.0
2018-Jul-10 22:29N 37°30' W 122°29'0 0.0
2018-Jul-10 21:59N 37°30' W 122°29'0 0.0
2018-Jul-10 21:29N 37°30' W 122°29'0 0.0
2018-Jul-10 20:59N 37°30' W 122°29'0 0.0
2018-Jul-10 20:29N 37°30' W 122°29'0 0.0
2018-Jul-10 19:59N 37°30' W 122°29'0 0.0
2018-Jul-10 19:29N 37°30' W 122°29'0 0.0
2018-Jul-10 18:59N 37°30' W 122°29'0 0.0
2018-Jul-10 18:29N 37°30' W 122°29'0 0.0
2018-Jul-10 17:59N 37°30' W 122°29'0 0.0
2018-Jul-10 17:29N 37°30' W 122°29'0 0.0
2018-Jul-10 16:59N 37°30' W 122°29'0 0.0
2018-Jul-10 16:29N 37°30' W 122°29'0 0.0
2018-Jul-10 15:59N 37°30' W 122°29'0 0.0
2018-Jul-10 15:29N 37°30' W 122°29'0 0.0
2018-Jul-10 14:59N 37°30' W 122°29'0 0.0
2018-Jul-10 14:29N 37°30' W 122°29'0 0.0
2018-Jul-10 13:59N 37°30' W 122°29'0 0.0
2018-Jul-10 13:29N 37°30' W 122°29'0 0.0
2018-Jul-10 12:59N 37°30' W 122°29'0 0.0
2018-Jul-10 12:29N 37°30' W 122°29'0 0.0
2018-Jul-10 11:59N 37°30' W 122°29'0 0.0
2018-Jul-10 11:29N 37°30' W 122°29'0 0.0
2018-Jul-10 10:59N 37°30' W 122°29'0 0.0
2018-Jul-10 10:29N 37°30' W 122°29'0 0.0
2018-Jul-10 09:59N 37°30' W 122°29'0 0.0
2018-Jul-10 09:29N 37°30' W 122°29'0 0.0
2018-Jul-10 08:59N 37°30' W 122°29'0 0.0
2018-Jul-10 08:29N 37°30' W 122°29'0 0.0
2018-Jul-10 07:59N 37°30' W 122°29'0 0.0
2018-Jul-10 07:29N 37°30' W 122°29'0 0.0
2018-Jul-10 06:59N 37°30' W 122°29'0 0.0
2018-Jul-10 06:29N 37°30' W 122°29'0 0.0
2018-Jul-10 05:59N 37°30' W 122°29'0 0.0
2018-Jul-10 05:29N 37°30' W 122°29'0 0.0
2018-Jul-10 04:59N 37°30' W 122°29'0 0.0
2018-Jul-10 04:29N 37°30' W 122°29'0 0.0
2018-Jul-10 03:59N 37°30' W 122°29'0 0.0
2018-Jul-10 03:29N 37°30' W 122°29'0 0.0
2018-Jul-10 02:59N 37°30' W 122°29'0 0.0
2018-Jul-10 02:29N 37°30' W 122°29'0 0.0
2018-Jul-10 01:59N 37°30' W 122°29'0 0.0
2018-Jul-10 01:29N 37°30' W 122°29'0 0.0
2018-Jul-10 00:59N 37°30' W 122°29'0 0.0
2018-Jul-10 00:29N 37°30' W 122°29'0 0.0
2018-Jul-09 23:59N 37°30' W 122°29'0 0.0
2018-Jul-09 23:29N 37°30' W 122°29'0 0.0
2018-Jul-09 22:59N 37°30' W 122°29'0 0.0
2018-Jul-09 22:29N 37°30' W 122°29'0 0.0
2018-Jul-09 21:59N 37°30' W 122°29'0 0.0
2018-Jul-09 21:29N 37°30' W 122°29'0 0.0
2018-Jul-09 20:59N 37°30' W 122°29'0 0.0
2018-Jul-09 20:29N 37°30' W 122°29'0 0.0
2018-Jul-09 19:59N 37°30' W 122°29'0 0.0
2018-Jul-09 19:29N 37°30' W 122°29'0 0.0
2018-Jul-09 18:59N 37°30' W 122°29'0 0.0
2018-Jul-09 18:29N 37°30' W 122°29'0 0.0
2018-Jul-09 17:59N 37°30' W 122°29'0 0.0
2018-Jul-09 17:29N 37°30' W 122°29'0 0.0
2018-Jul-09 16:59N 37°30' W 122°29'0 0.0
2018-Jul-09 16:29N 37°30' W 122°29'0 0.0
2018-Jul-09 15:59N 37°30' W 122°29'0 0.0
2018-Jul-09 15:29N 37°30' W 122°29'0 0.0
2018-Jul-09 14:59N 37°30' W 122°29'0 0.0
2018-Jul-09 14:29N 37°30' W 122°29'0 0.0
2018-Jul-09 13:59N 37°30' W 122°29'0 0.0
2018-Jul-09 13:29N 37°30' W 122°29'0 0.0
2018-Jul-09 12:59N 37°30' W 122°29'0 0.0
2018-Jul-09 12:29N 37°30' W 122°29'0 0.0
2018-Jul-09 11:59N 37°30' W 122°29'0 0.0
2018-Jul-09 11:29N 37°30' W 122°29'0 0.0
2018-Jul-09 10:59N 37°30' W 122°29'0 0.0
2018-Jul-09 10:29N 37°30' W 122°29'0 0.0
2018-Jul-09 09:59N 37°30' W 122°29'0 0.0
2018-Jul-09 09:29N 37°30' W 122°29'0 0.0
2018-Jul-09 08:59N 37°30' W 122°29'0 0.0
2018-Jul-09 08:29N 37°30' W 122°29'0 0.0
2018-Jul-09 07:59N 37°30' W 122°29'0 0.0
2018-Jul-09 07:29N 37°30' W 122°29'0 0.0
2018-Jul-09 06:59N 37°30' W 122°29'0 0.0
2018-Jul-09 06:29N 37°30' W 122°29'0 0.0
2018-Jul-09 05:59N 37°30' W 122°29'0 0.0
2018-Jul-09 05:29N 37°30' W 122°29'0 0.0
2018-Jul-09 04:59N 37°30' W 122°29'0 0.0
2018-Jul-09 04:29N 37°30' W 122°29'0 0.0
2018-Jul-09 03:59N 37°30' W 122°29'0 0.0
2018-Jul-09 03:29N 37°30' W 122°29'0 0.0
2018-Jul-09 02:59N 37°30' W 122°29'0 0.0
2018-Jul-09 02:29N 37°30' W 122°29'0 0.0
2018-Jul-09 01:59N 37°30' W 122°29'0 0.0
2018-Jul-09 01:29N 37°30' W 122°29'0 0.0
2018-Jul-09 00:59N 37°30' W 122°29'0 0.0
2018-Jul-09 00:29N 37°30' W 122°29'0 0.0
2018-Jul-08 23:59N 37°30' W 122°29'0 0.0
2018-Jul-08 23:29N 37°30' W 122°29'0 0.0
2018-Jul-08 22:59N 37°30' W 122°29'0 0.0
2018-Jul-08 22:29N 37°30' W 122°29'0 0.0
2018-Jul-08 21:59N 37°30' W 122°29'0 0.0
2018-Jul-08 21:29N 37°30' W 122°29'0 0.0
2018-Jul-08 20:59N 37°30' W 122°29'0 0.0
2018-Jul-08 20:29N 37°30' W 122°29'0 0.0
2018-Jul-08 19:59N 37°30' W 122°29'0 0.0
2018-Jul-08 19:29N 37°30' W 122°29'0 0.0
2018-Jul-08 18:59N 37°30' W 122°29'0 0.0
2018-Jul-08 18:29N 37°30' W 122°29'0 0.0
2018-Jul-08 17:59N 37°30' W 122°29'0 0.0
2018-Jul-08 17:26N 37°30' W 122°29'0 0.0
2018-Jul-08 16:59N 37°30' W 122°29'0 0.0
2018-Jul-08 16:29N 37°30' W 122°29'0 0.0
2018-Jul-08 15:59N 37°30' W 122°29'0 0.0
2018-Jul-08 15:29N 37°30' W 122°29'0 0.0
2018-Jul-08 14:59N 37°30' W 122°29'0 0.0
2018-Jul-08 14:29N 37°30' W 122°29'0 0.0
2018-Jul-08 13:59N 37°30' W 122°29'0 0.0
2018-Jul-08 13:29N 37°30' W 122°29'0 0.0
2018-Jul-08 12:59N 37°30' W 122°29'0 0.0
2018-Jul-08 12:29N 37°30' W 122°29'0 0.0
2018-Jul-08 11:59N 37°30' W 122°29'0 0.0
2018-Jul-08 11:29N 37°30' W 122°29'0 0.0
2018-Jul-08 10:59N 37°30' W 122°29'0 0.0
2018-Jul-08 10:29N 37°30' W 122°29'0 0.0
2018-Jul-08 09:59N 37°30' W 122°29'0 0.0
2018-Jul-08 09:29N 37°30' W 122°29'0 0.0
2018-Jul-08 08:59N 37°30' W 122°29'0 0.0
2018-Jul-08 08:29N 37°30' W 122°29'0 0.0
2018-Jul-08 07:59N 37°30' W 122°29'0 0.0
2018-Jul-08 07:29N 37°30' W 122°29'0 0.0
2018-Jul-08 06:59N 37°30' W 122°29'0 0.0
2018-Jul-08 06:28N 37°30' W 122°29'0 0.0
2018-Jul-08 05:59N 37°30' W 122°29'0 0.0
2018-Jul-08 05:29N 37°30' W 122°29'0 0.0
2018-Jul-08 04:59N 37°30' W 122°29'0 0.0
2018-Jul-08 04:28N 37°30' W 122°29'0 0.0
2018-Jul-08 03:59N 37°30' W 122°29'0 0.0
2018-Jul-08 03:29N 37°30' W 122°29'0 0.0
2018-Jul-08 02:59N 37°30' W 122°29'0 0.0
2018-Jul-08 02:28N 37°30' W 122°29'0 0.0
2018-Jul-08 01:59N 37°30' W 122°29'0 0.0
2018-Jul-08 01:29N 37°30' W 122°29'0 0.0
2018-Jul-08 00:59N 37°30' W 122°29'0 0.0
2018-Jul-08 00:29N 37°30' W 122°29'0 0.0
2018-Jul-07 23:58N 37°30' W 122°29'0 0.0
2018-Jul-07 23:29N 37°30' W 122°29'0 0.0
2018-Jul-07 22:58N 37°30' W 122°29'0 0.0
2018-Jul-07 22:29N 37°30' W 122°29'0 0.0
2018-Jul-07 21:59N 37°30' W 122°29'0 0.0
2018-Jul-07 21:29N 37°30' W 122°29'0 0.0
2018-Jul-07 20:59N 37°30' W 122°29'0 0.0
2018-Jul-07 20:29N 37°30' W 122°29'0 0.0
2018-Jul-07 19:59N 37°30' W 122°29'0 0.0
2018-Jul-07 19:29N 37°30' W 122°29'0 0.0
2018-Jul-07 18:59N 37°30' W 122°29'0 0.0
2018-Jul-07 18:28N 37°30' W 122°29'0 0.0
2018-Jul-07 17:59N 37°30' W 122°29'0 0.0
2018-Jul-07 17:29N 37°30' W 122°29'0 0.0
2018-Jul-07 16:59N 37°30' W 122°29'0 0.0
2018-Jul-07 16:28N 37°30' W 122°29'0 0.0
2018-Jul-07 15:59N 37°30' W 122°29'0 0.0
2018-Jul-07 15:29N 37°30' W 122°29'0 0.0
2018-Jul-07 14:59N 37°30' W 122°29'0 0.0
2018-Jul-07 14:29N 37°30' W 122°29'0 0.0
2018-Jul-07 13:59N 37°30' W 122°29'0 0.0
2018-Jul-07 13:28N 37°30' W 122°29'0 0.0
2018-Jul-07 12:59N 37°30' W 122°29'0 0.0
2018-Jul-07 12:28N 37°30' W 122°29'0 0.0
2018-Jul-07 11:59N 37°30' W 122°29'0 0.0
2018-Jul-07 11:28N 37°30' W 122°29'0 0.0
2018-Jul-07 10:59N 37°30' W 122°29'0 0.0
2018-Jul-07 10:28N 37°30' W 122°29'0 0.0
2018-Jul-07 09:58N 37°30' W 122°29'0 0.0
2018-Jul-07 09:28N 37°30' W 122°29'0 0.0
2018-Jul-07 08:58N 37°30' W 122°29'0 0.0
2018-Jul-07 08:28N 37°30' W 122°29'0 0.0
2018-Jul-07 07:58N 37°30' W 122°29'0 0.0
2018-Jul-07 07:28N 37°30' W 122°29'0 0.0
2018-Jul-07 06:59N 37°30' W 122°29'0 0.0
2018-Jul-07 06:29N 37°30' W 122°29'0 0.0
2018-Jul-07 05:58N 37°30' W 122°29'0 0.0
2018-Jul-07 05:28N 37°30' W 122°29'0 0.0
2018-Jul-07 04:58N 37°30' W 122°29'0 0.0
2018-Jul-07 04:28N 37°30' W 122°29'0 0.0
2018-Jul-07 03:58N 37°30' W 122°29'0 0.0
2018-Jul-07 03:28N 37°30' W 122°29'0 0.0
2018-Jul-07 02:58N 37°30' W 122°29'0 0.0
2018-Jul-07 02:28N 37°30' W 122°29'0 0.0
2018-Jul-07 01:58N 37°30' W 122°29'0 0.0
2018-Jul-07 01:28N 37°30' W 122°29'  

Dump ship's entire track history